sensor_id;sensor_type;location;lat;lon;timestamp;temperature;humidity
52016;DHT22;38032;53.326;6.472;2023-08-20T00:01:09;17.10;99.90
52016;DHT22;38032;53.326;6.472;2023-08-20T00:03:39;17.00;99.90
52016;DHT22;38032;53.326;6.472;2023-08-20T00:06:05;17.00;99.90
52016;DHT22;38032;53.326;6.472;2023-08-20T00:08:31;17.00;99.90
52016;DHT22;38032;53.326;6.472;2023-08-20T00:10:57;17.00;99.90
52016;DHT22;38032;53.326;6.472;2023-08-20T00:13:23;16.90;99.90
52016;DHT22;38032;53.326;6.472;2023-08-20T00:15:49;16.90;99.90
52016;DHT22;38032;53.326;6.472;2023-08-20T00:18:15;16.90;99.90
52016;DHT22;38032;53.326;6.472;2023-08-20T00:20:42;16.90;99.90
52016;DHT22;38032;53.326;6.472;2023-08-20T00:23:08;16.80;99.90
52016;DHT22;38032;53.326;6.472;2023-08-20T00:28:00;16.80;99.90
52016;DHT22;38032;53.326;6.472;2023-08-20T00:30:26;16.80;99.90
52016;DHT22;38032;53.326;6.472;2023-08-20T00:32:52;16.70;99.90
52016;DHT22;38032;53.326;6.472;2023-08-20T00:35:18;16.70;99.90
52016;DHT22;38032;53.326;6.472;2023-08-20T00:37:44;16.70;99.90
52016;DHT22;38032;53.326;6.472;2023-08-20T00:40:10;16.70;99.90
52016;DHT22;38032;53.326;6.472;2023-08-20T00:42:37;16.70;99.90
52016;DHT22;38032;53.326;6.472;2023-08-20T00:45:04;16.70;99.90
52016;DHT22;38032;53.326;6.472;2023-08-20T00:47:30;16.70;99.90
52016;DHT22;38032;53.326;6.472;2023-08-20T00:49:56;16.70;99.90
52016;DHT22;38032;53.326;6.472;2023-08-20T00:52:22;16.70;99.90
52016;DHT22;38032;53.326;6.472;2023-08-20T00:54:49;16.70;99.90
52016;DHT22;38032;53.326;6.472;2023-08-20T00:57:18;16.70;99.90
52016;DHT22;38032;53.326;6.472;2023-08-20T00:59:47;16.70;99.90
52016;DHT22;38032;53.326;6.472;2023-08-20T01:02:15;16.70;99.90
52016;DHT22;38032;53.326;6.472;2023-08-20T01:04:42;16.60;99.90
52016;DHT22;38032;53.326;6.472;2023-08-20T01:07:24;16.60;99.90
52016;DHT22;38032;53.326;6.472;2023-08-20T01:10:03;16.60;99.90
52016;DHT22;38032;53.326;6.472;2023-08-20T01:12:31;16.50;99.90
52016;DHT22;38032;53.326;6.472;2023-08-20T01:14:59;16.50;99.90
52016;DHT22;38032;53.326;6.472;2023-08-20T01:17:25;16.50;99.90
52016;DHT22;38032;53.326;6.472;2023-08-20T01:19:51;16.50;99.90
52016;DHT22;38032;53.326;6.472;2023-08-20T01:25:32;16.40;99.90
52016;DHT22;38032;53.326;6.472;2023-08-20T01:30:51;16.40;99.90
52016;DHT22;38032;53.326;6.472;2023-08-20T01:33:19;16.30;99.90
52016;DHT22;38032;53.326;6.472;2023-08-20T01:35:45;16.30;99.90
52016;DHT22;38032;53.326;6.472;2023-08-20T01:38:11;16.30;99.90
52016;DHT22;38032;53.326;6.472;2023-08-20T01:40:37;16.40;99.90
52016;DHT22;38032;53.326;6.472;2023-08-20T01:43:03;16.30;99.90
52016;DHT22;38032;53.326;6.472;2023-08-20T01:45:29;16.30;99.90
52016;DHT22;38032;53.326;6.472;2023-08-20T01:47:55;16.30;99.90
52016;DHT22;38032;53.326;6.472;2023-08-20T01:50:21;16.30;99.90
52016;DHT22;38032;53.326;6.472;2023-08-20T01:52:47;16.20;99.90
52016;DHT22;38032;53.326;6.472;2023-08-20T01:55:12;16.20;99.90
52016;DHT22;38032;53.326;6.472;2023-08-20T01:57:39;16.20;99.90
52016;DHT22;38032;53.326;6.472;2023-08-20T02:00:05;16.20;99.90
52016;DHT22;38032;53.326;6.472;2023-08-20T02:02:32;16.20;99.90
52016;DHT22;38032;53.326;6.472;2023-08-20T02:05:00;16.20;99.90
52016;DHT22;38032;53.326;6.472;2023-08-20T02:07:26;16.20;99.90
52016;DHT22;38032;53.326;6.472;2023-08-20T02:09:52;16.20;99.90
52016;DHT22;38032;53.326;6.472;2023-08-20T02:12:18;16.20;99.90
52016;DHT22;38032;53.326;6.472;2023-08-20T02:14:44;16.20;99.90
52016;DHT22;38032;53.326;6.472;2023-08-20T02:17:10;16.20;99.90
52016;DHT22;38032;53.326;6.472;2023-08-20T02:19:38;16.20;99.90
52016;DHT22;38032;53.326;6.472;2023-08-20T02:22:04;16.20;99.90
52016;DHT22;38032;53.326;6.472;2023-08-20T02:24:30;16.20;99.90
52016;DHT22;38032;53.326;6.472;2023-08-20T02:26:56;16.20;99.90
52016;DHT22;38032;53.326;6.472;2023-08-20T02:29:22;16.20;99.90
52016;DHT22;38032;53.326;6.472;2023-08-20T02:31:48;16.20;99.90
52016;DHT22;38032;53.326;6.472;2023-08-20T02:34:14;16.10;99.90
52016;DHT22;38032;53.326;6.472;2023-08-20T02:36:40;16.10;99.90
52016;DHT22;38032;53.326;6.472;2023-08-20T02:39:06;16.10;99.90
52016;DHT22;38032;53.326;6.472;2023-08-20T02:41:34;16.00;99.90
52016;DHT22;38032;53.326;6.472;2023-08-20T02:44:02;16.00;99.90
52016;DHT22;38032;53.326;6.472;2023-08-20T02:46:29;16.00;99.90
52016;DHT22;38032;53.326;6.472;2023-08-20T02:48:55;16.00;99.90
52016;DHT22;38032;53.326;6.472;2023-08-20T02:51:21;16.00;99.90
52016;DHT22;38032;53.326;6.472;2023-08-20T02:53:46;15.90;99.90
52016;DHT22;38032;53.326;6.472;2023-08-20T02:56:12;15.90;99.90
52016;DHT22;38032;53.326;6.472;2023-08-20T02:58:38;15.90;99.90
52016;DHT22;38032;53.326;6.472;2023-08-20T03:01:04;15.90;99.90
52016;DHT22;38032;53.326;6.472;2023-08-20T03:03:31;15.90;99.90
52016;DHT22;38032;53.326;6.472;2023-08-20T03:05:57;15.90;99.90
52016;DHT22;38032;53.326;6.472;2023-08-20T03:08:22;15.80;99.90
52016;DHT22;38032;53.326;6.472;2023-08-20T03:10:48;15.80;99.90
52016;DHT22;38032;53.326;6.472;2023-08-20T03:13:14;15.80;99.90
52016;DHT22;38032;53.326;6.472;2023-08-20T03:15:40;15.80;99.90
52016;DHT22;38032;53.326;6.472;2023-08-20T03:18:07;15.80;99.90
52016;DHT22;38032;53.326;6.472;2023-08-20T03:20:32;15.80;99.90
52016;DHT22;38032;53.326;6.472;2023-08-20T03:22:58;15.80;99.90
52016;DHT22;38032;53.326;6.472;2023-08-20T03:25:24;15.80;99.90
52016;DHT22;38032;53.326;6.472;2023-08-20T03:27:52;15.80;99.90
52016;DHT22;38032;53.326;6.472;2023-08-20T03:30:18;15.80;99.90
52016;DHT22;38032;53.326;6.472;2023-08-20T03:32:44;15.90;99.90
52016;DHT22;38032;53.326;6.472;2023-08-20T03:37:36;15.70;99.90
52016;DHT22;38032;53.326;6.472;2023-08-20T03:40:02;15.70;99.90
52016;DHT22;38032;53.326;6.472;2023-08-20T03:42:30;15.80;99.90
52016;DHT22;38032;53.326;6.472;2023-08-20T03:44:56;15.70;99.90
52016;DHT22;38032;53.326;6.472;2023-08-20T03:47:22;15.70;99.90
52016;DHT22;38032;53.326;6.472;2023-08-20T03:52:14;15.70;99.90
52016;DHT22;38032;53.326;6.472;2023-08-20T03:54:40;15.70;99.90
52016;DHT22;38032;53.326;6.472;2023-08-20T03:57:06;15.70;99.90
52016;DHT22;38032;53.326;6.472;2023-08-20T03:59:32;15.70;99.90
52016;DHT22;38032;53.326;6.472;2023-08-20T04:01:58;15.70;99.90
52016;DHT22;38032;53.326;6.472;2023-08-20T04:04:24;15.70;99.90
52016;DHT22;38032;53.326;6.472;2023-08-20T04:06:51;15.60;99.90
52016;DHT22;38032;53.326;6.472;2023-08-20T04:09:17;15.60;99.90
52016;DHT22;38032;53.326;6.472;2023-08-20T04:11:43;15.70;99.90
52016;DHT22;38032;53.326;6.472;2023-08-20T04:14:09;15.60;99.90
52016;DHT22;38032;53.326;6.472;2023-08-20T04:16:34;15.60;99.90
52016;DHT22;38032;53.326;6.472;2023-08-20T04:19:00;15.60;99.90
52016;DHT22;38032;53.326;6.472;2023-08-20T04:21:26;15.60;99.90
52016;DHT22;38032;53.326;6.472;2023-08-20T04:23:52;15.50;99.90
52016;DHT22;38032;53.326;6.472;2023-08-20T04:28:44;15.60;99.90
52016;DHT22;38032;53.326;6.472;2023-08-20T04:31:10;15.50;99.90
52016;DHT22;38032;53.326;6.472;2023-08-20T04:33:36;15.50;99.90
52016;DHT22;38032;53.326;6.472;2023-08-20T04:36:02;15.50;99.90
52016;DHT22;38032;53.326;6.472;2023-08-20T04:38:28;15.60;99.90
52016;DHT22;38032;53.326;6.472;2023-08-20T04:40:54;15.60;99.90
52016;DHT22;38032;53.326;6.472;2023-08-20T04:43:20;15.60;99.90
52016;DHT22;38032;53.326;6.472;2023-08-20T04:45:46;15.60;99.90
52016;DHT22;38032;53.326;6.472;2023-08-20T04:48:11;15.70;99.90
52016;DHT22;38032;53.326;6.472;2023-08-20T04:50:37;15.70;99.90
52016;DHT22;38032;53.326;6.472;2023-08-20T04:53:03;15.70;99.90
52016;DHT22;38032;53.326;6.472;2023-08-20T04:55:29;15.70;99.90
52016;DHT22;38032;53.326;6.472;2023-08-20T04:57:55;15.80;99.90
52016;DHT22;38032;53.326;6.472;2023-08-20T05:00:22;15.80;99.90
52016;DHT22;38032;53.326;6.472;2023-08-20T05:02:48;15.80;99.90
52016;DHT22;38032;53.326;6.472;2023-08-20T05:05:14;15.80;99.90
52016;DHT22;38032;53.326;6.472;2023-08-20T05:07:40;15.90;99.90
52016;DHT22;38032;53.326;6.472;2023-08-20T05:10:07;15.90;99.90
52016;DHT22;38032;53.326;6.472;2023-08-20T05:12:34;15.90;99.90
52016;DHT22;38032;53.326;6.472;2023-08-20T05:15:00;15.90;99.90
52016;DHT22;38032;53.326;6.472;2023-08-20T05:22:19;16.00;99.90
52016;DHT22;38032;53.326;6.472;2023-08-20T05:24:45;16.00;99.90
52016;DHT22;38032;53.326;6.472;2023-08-20T05:27:14;16.00;99.90
52016;DHT22;38032;53.326;6.472;2023-08-20T05:29:40;16.10;99.90
52016;DHT22;38032;53.326;6.472;2023-08-20T05:32:07;16.10;99.90
52016;DHT22;38032;53.326;6.472;2023-08-20T05:34:33;16.20;99.90
52016;DHT22;38032;53.326;6.472;2023-08-20T05:36:59;16.20;99.90
52016;DHT22;38032;53.326;6.472;2023-08-20T05:39:26;16.20;99.90
52016;DHT22;38032;53.326;6.472;2023-08-20T05:41:53;16.20;99.90
52016;DHT22;38032;53.326;6.472;2023-08-20T05:44:19;16.30;99.90
52016;DHT22;38032;53.326;6.472;2023-08-20T05:46:45;16.30;99.90
52016;DHT22;38032;53.326;6.472;2023-08-20T05:49:13;16.30;99.90
52016;DHT22;38032;53.326;6.472;2023-08-20T05:54:07;16.40;99.90
52016;DHT22;38032;53.326;6.472;2023-08-20T05:56:33;16.50;99.90
52016;DHT22;38032;53.326;6.472;2023-08-20T05:58:59;16.50;99.90
52016;DHT22;38032;53.326;6.472;2023-08-20T06:01:25;16.50;99.90
52016;DHT22;38032;53.326;6.472;2023-08-20T06:03:51;16.60;99.90
52016;DHT22;38032;53.326;6.472;2023-08-20T06:06:17;16.60;99.90
52016;DHT22;38032;53.326;6.472;2023-08-20T06:08:43;16.70;99.90
52016;DHT22;38032;53.326;6.472;2023-08-20T06:11:09;16.70;99.90
52016;DHT22;38032;53.326;6.472;2023-08-20T06:13:35;16.70;99.90
52016;DHT22;38032;53.326;6.472;2023-08-20T06:16:00;16.80;99.90
52016;DHT22;38032;53.326;6.472;2023-08-20T06:18:26;16.90;99.90
52016;DHT22;38032;53.326;6.472;2023-08-20T06:20:52;16.90;99.90
52016;DHT22;38032;53.326;6.472;2023-08-20T06:23:18;16.90;99.90
52016;DHT22;38032;53.326;6.472;2023-08-20T06:25:44;17.00;99.90
52016;DHT22;38032;53.326;6.472;2023-08-20T06:28:10;17.10;99.90
52016;DHT22;38032;53.326;6.472;2023-08-20T06:30:36;17.10;99.90
52016;DHT22;38032;53.326;6.472;2023-08-20T06:33:02;17.20;99.90
52016;DHT22;38032;53.326;6.472;2023-08-20T06:35:28;17.20;99.90
52016;DHT22;38032;53.326;6.472;2023-08-20T06:37:54;17.30;99.90
52016;DHT22;38032;53.326;6.472;2023-08-20T06:40:20;17.40;99.90
52016;DHT22;38032;53.326;6.472;2023-08-20T06:42:46;17.40;99.90
52016;DHT22;38032;53.326;6.472;2023-08-20T06:45:12;17.50;99.90
52016;DHT22;38032;53.326;6.472;2023-08-20T06:47:37;17.50;99.90
52016;DHT22;38032;53.326;6.472;2023-08-20T06:50:04;17.60;99.90
52016;DHT22;38032;53.326;6.472;2023-08-20T06:52:31;17.60;99.90
52016;DHT22;38032;53.326;6.472;2023-08-20T06:54:57;17.70;99.90
52016;DHT22;38032;53.326;6.472;2023-08-20T06:57:23;17.70;99.90
52016;DHT22;38032;53.326;6.472;2023-08-20T06:59:49;17.80;99.90
52016;DHT22;38032;53.326;6.472;2023-08-20T07:02:15;17.90;99.90
52016;DHT22;38032;53.326;6.472;2023-08-20T07:04:41;17.90;99.90
52016;DHT22;38032;53.326;6.472;2023-08-20T07:07:07;18.10;99.90
52016;DHT22;38032;53.326;6.472;2023-08-20T07:09:33;18.20;99.90
52016;DHT22;38032;53.326;6.472;2023-08-20T07:11:59;18.30;99.90
52016;DHT22;38032;53.326;6.472;2023-08-20T07:14:25;18.40;99.90
52016;DHT22;38032;53.326;6.472;2023-08-20T07:16:51;18.40;99.90
52016;DHT22;38032;53.326;6.472;2023-08-20T07:19:17;18.50;99.90
52016;DHT22;38032;53.326;6.472;2023-08-20T07:21:43;18.60;99.90
52016;DHT22;38032;53.326;6.472;2023-08-20T07:24:09;18.70;99.90
52016;DHT22;38032;53.326;6.472;2023-08-20T07:26:35;18.70;99.90
52016;DHT22;38032;53.326;6.472;2023-08-20T07:29:01;18.80;99.90
52016;DHT22;38032;53.326;6.472;2023-08-20T07:31:28;18.80;99.90
52016;DHT22;38032;53.326;6.472;2023-08-20T07:33:55;19.00;99.90
52016;DHT22;38032;53.326;6.472;2023-08-20T07:36:23;19.00;99.90
52016;DHT22;38032;53.326;6.472;2023-08-20T07:38:50;19.00;99.90
52016;DHT22;38032;53.326;6.472;2023-08-20T07:41:16;19.10;99.90
52016;DHT22;38032;53.326;6.472;2023-08-20T07:43:43;19.20;99.90
52016;DHT22;38032;53.326;6.472;2023-08-20T07:46:09;19.30;99.90
52016;DHT22;38032;53.326;6.472;2023-08-20T07:48:35;19.40;99.90
52016;DHT22;38032;53.326;6.472;2023-08-20T07:51:03;19.40;99.90
52016;DHT22;38032;53.326;6.472;2023-08-20T07:53:29;19.60;99.90
52016;DHT22;38032;53.326;6.472;2023-08-20T07:55:55;19.70;99.90
52016;DHT22;38032;53.326;6.472;2023-08-20T07:58:22;19.70;99.90
52016;DHT22;38032;53.326;6.472;2023-08-20T08:00:48;19.80;99.90
52016;DHT22;38032;53.326;6.472;2023-08-20T08:03:13;19.90;99.90
52016;DHT22;38032;53.326;6.472;2023-08-20T08:05:41;20.00;99.90
52016;DHT22;38032;53.326;6.472;2023-08-20T08:08:07;20.00;99.90
52016;DHT22;38032;53.326;6.472;2023-08-20T08:10:33;20.10;99.90
52016;DHT22;38032;53.326;6.472;2023-08-20T08:12:59;20.20;99.90
52016;DHT22;38032;53.326;6.472;2023-08-20T08:15:25;20.30;99.90
52016;DHT22;38032;53.326;6.472;2023-08-20T08:17:50;20.30;99.90
52016;DHT22;38032;53.326;6.472;2023-08-20T08:20:16;20.40;99.90
52016;DHT22;38032;53.326;6.472;2023-08-20T08:22:42;20.50;99.90
52016;DHT22;38032;53.326;6.472;2023-08-20T08:25:08;20.50;99.90
52016;DHT22;38032;53.326;6.472;2023-08-20T08:27:34;20.60;99.90
52016;DHT22;38032;53.326;6.472;2023-08-20T08:30:00;20.70;99.90
52016;DHT22;38032;53.326;6.472;2023-08-20T08:32:26;20.70;99.90
52016;DHT22;38032;53.326;6.472;2023-08-20T08:34:52;20.80;99.90
52016;DHT22;38032;53.326;6.472;2023-08-20T08:37:17;20.90;99.90
52016;DHT22;38032;53.326;6.472;2023-08-20T08:39:43;20.90;99.90
52016;DHT22;38032;53.326;6.472;2023-08-20T08:42:10;21.00;99.90
52016;DHT22;38032;53.326;6.472;2023-08-20T08:44:37;21.10;99.90
52016;DHT22;38032;53.326;6.472;2023-08-20T08:47:05;21.10;99.90
52016;DHT22;38032;53.326;6.472;2023-08-20T08:49:33;21.30;99.90
52016;DHT22;38032;53.326;6.472;2023-08-20T08:52:00;21.30;99.90
52016;DHT22;38032;53.326;6.472;2023-08-20T08:54:26;21.40;99.90
52016;DHT22;38032;53.326;6.472;2023-08-20T08:56:52;21.50;99.90
52016;DHT22;38032;53.326;6.472;2023-08-20T08:59:19;21.60;99.90
52016;DHT22;38032;53.326;6.472;2023-08-20T09:01:45;21.60;99.90
52016;DHT22;38032;53.326;6.472;2023-08-20T09:04:12;21.80;99.90
52016;DHT22;38032;53.326;6.472;2023-08-20T09:06:45;21.90;99.90
52016;DHT22;38032;53.326;6.472;2023-08-20T09:09:11;22.00;99.90
52016;DHT22;38032;53.326;6.472;2023-08-20T09:11:38;22.20;99.90
52016;DHT22;38032;53.326;6.472;2023-08-20T09:14:04;22.40;99.90
52016;DHT22;38032;53.326;6.472;2023-08-20T09:16:30;22.50;99.90
52016;DHT22;38032;53.326;6.472;2023-08-20T09:18:59;22.60;99.90
52016;DHT22;38032;53.326;6.472;2023-08-20T09:21:27;22.80;99.90
52016;DHT22;38032;53.326;6.472;2023-08-20T09:23:56;22.90;99.90
52016;DHT22;38032;53.326;6.472;2023-08-20T09:26:22;23.90;99.90
52016;DHT22;38032;53.326;6.472;2023-08-20T09:28:49;25.40;99.90
52016;DHT22;38032;53.326;6.472;2023-08-20T09:31:15;26.40;99.90
52016;DHT22;38032;53.326;6.472;2023-08-20T09:33:51;28.10;99.90
52016;DHT22;38032;53.326;6.472;2023-08-20T09:36:17;29.10;99.90
52016;DHT22;38032;53.326;6.472;2023-08-20T09:38:43;30.60;99.90
52016;DHT22;38032;53.326;6.472;2023-08-20T09:41:09;32.80;98.20
52016;DHT22;38032;53.326;6.472;2023-08-20T09:43:38;33.00;96.40
52016;DHT22;38032;53.326;6.472;2023-08-20T09:46:05;34.10;91.20
52016;DHT22;38032;53.326;6.472;2023-08-20T09:48:34;35.00;82.60
52016;DHT22;38032;53.326;6.472;2023-08-20T09:51:05;35.80;78.50
52016;DHT22;38032;53.326;6.472;2023-08-20T09:53:39;36.50;74.40
52016;DHT22;38032;53.326;6.472;2023-08-20T09:56:22;37.20;70.90
52016;DHT22;38032;53.326;6.472;2023-08-20T09:58:52;37.90;69.00
52016;DHT22;38032;53.326;6.472;2023-08-20T10:01:19;38.40;67.60
52016;DHT22;38032;53.326;6.472;2023-08-20T10:03:45;38.80;65.20
52016;DHT22;38032;53.326;6.472;2023-08-20T10:06:11;39.20;63.60
52016;DHT22;38032;53.326;6.472;2023-08-20T10:08:38;39.50;62.40
52016;DHT22;38032;53.326;6.472;2023-08-20T10:11:04;39.80;61.40
52016;DHT22;38032;53.326;6.472;2023-08-20T10:13:30;40.30;60.50
52016;DHT22;38032;53.326;6.472;2023-08-20T10:15:56;40.50;59.30
52016;DHT22;38032;53.326;6.472;2023-08-20T10:18:22;40.90;58.00
52016;DHT22;38032;53.326;6.472;2023-08-20T10:20:57;41.10;56.70
52016;DHT22;38032;53.326;6.472;2023-08-20T10:23:24;41.20;56.80
52016;DHT22;38032;53.326;6.472;2023-08-20T10:25:52;41.40;55.40
52016;DHT22;38032;53.326;6.472;2023-08-20T10:28:24;41.50;55.30
52016;DHT22;38032;53.326;6.472;2023-08-20T10:31:09;41.50;54.40
52016;DHT22;38032;53.326;6.472;2023-08-20T10:33:47;41.40;56.40
52016;DHT22;38032;53.326;6.472;2023-08-20T10:36:16;41.30;54.40
52016;DHT22;38032;53.326;6.472;2023-08-20T10:38:45;41.30;54.20
52016;DHT22;38032;53.326;6.472;2023-08-20T10:41:11;41.30;54.20
52016;DHT22;38032;53.326;6.472;2023-08-20T10:49:02;41.20;53.30
52016;DHT22;38032;53.326;6.472;2023-08-20T10:51:32;41.10;53.40
52016;DHT22;38032;53.326;6.472;2023-08-20T10:56:46;40.90;53.00
52016;DHT22;38032;53.326;6.472;2023-08-20T10:59:20;40.80;54.00
52016;DHT22;38032;53.326;6.472;2023-08-20T11:01:48;40.70;53.40
52016;DHT22;38032;53.326;6.472;2023-08-20T11:04:17;40.70;52.80
52016;DHT22;38032;53.326;6.472;2023-08-20T11:06:44;40.70;52.70
52016;DHT22;38032;53.326;6.472;2023-08-20T11:09:10;40.50;52.40
52016;DHT22;38032;53.326;6.472;2023-08-20T11:11:39;40.20;52.00
52016;DHT22;38032;53.326;6.472;2023-08-20T11:14:11;39.90;52.60
52016;DHT22;38032;53.326;6.472;2023-08-20T11:16:40;39.50;52.30
52016;DHT22;38032;53.326;6.472;2023-08-20T11:19:06;39.00;52.40
52016;DHT22;38032;53.326;6.472;2023-08-20T11:21:39;38.70;52.50
52016;DHT22;38032;53.326;6.472;2023-08-20T11:24:06;38.40;54.00
52016;DHT22;38032;53.326;6.472;2023-08-20T11:26:34;38.10;54.10
52016;DHT22;38032;53.326;6.472;2023-08-20T11:29:05;37.90;54.20
52016;DHT22;38032;53.326;6.472;2023-08-20T11:31:31;37.70;54.90
52016;DHT22;38032;53.326;6.472;2023-08-20T11:33:57;37.50;55.20
52016;DHT22;38032;53.326;6.472;2023-08-20T11:36:23;37.50;55.20
52016;DHT22;38032;53.326;6.472;2023-08-20T11:38:55;37.40;57.90
52016;DHT22;38032;53.326;6.472;2023-08-20T11:41:22;37.20;55.90
52016;DHT22;38032;53.326;6.472;2023-08-20T11:43:49;37.00;55.50
52016;DHT22;38032;53.326;6.472;2023-08-20T11:46:18;36.80;54.80
52016;DHT22;38032;53.326;6.472;2023-08-20T11:51:30;36.40;55.90
52016;DHT22;38032;53.326;6.472;2023-08-20T11:54:00;36.20;54.70
52016;DHT22;38032;53.326;6.472;2023-08-20T11:56:27;35.80;57.10
52016;DHT22;38032;53.326;6.472;2023-08-20T11:58:59;35.80;55.70
52016;DHT22;38032;53.326;6.472;2023-08-20T12:01:25;35.50;56.90
52016;DHT22;38032;53.326;6.472;2023-08-20T12:03:51;35.20;56.30
52016;DHT22;38032;53.326;6.472;2023-08-20T12:06:18;35.10;56.30
52016;DHT22;38032;53.326;6.472;2023-08-20T12:08:45;34.90;56.80
52016;DHT22;38032;53.326;6.472;2023-08-20T12:11:11;34.60;58.10
52016;DHT22;38032;53.326;6.472;2023-08-20T12:13:37;34.40;57.80
52016;DHT22;38032;53.326;6.472;2023-08-20T12:16:03;34.30;57.40
52016;DHT22;38032;53.326;6.472;2023-08-20T12:18:29;34.00;58.00
52016;DHT22;38032;53.326;6.472;2023-08-20T12:20:55;33.90;57.40
52016;DHT22;38032;53.326;6.472;2023-08-20T12:23:21;33.70;57.50
52016;DHT22;38032;53.326;6.472;2023-08-20T12:25:50;33.50;59.60
52016;DHT22;38032;53.326;6.472;2023-08-20T12:28:16;33.40;57.90
52016;DHT22;38032;53.326;6.472;2023-08-20T12:30:43;33.40;58.40
52016;DHT22;38032;53.326;6.472;2023-08-20T12:33:09;33.20;58.60
52016;DHT22;38032;53.326;6.472;2023-08-20T12:35:36;33.00;58.80
52016;DHT22;38032;53.326;6.472;2023-08-20T12:38:03;33.00;58.50
52016;DHT22;38032;53.326;6.472;2023-08-20T12:40:30;32.90;59.10
52016;DHT22;38032;53.326;6.472;2023-08-20T12:42:56;32.70;59.10
52016;DHT22;38032;53.326;6.472;2023-08-20T12:45:22;32.40;59.70
52016;DHT22;38032;53.326;6.472;2023-08-20T12:47:48;32.20;59.80
52016;DHT22;38032;53.326;6.472;2023-08-20T12:50:14;32.20;60.00
52016;DHT22;38032;53.326;6.472;2023-08-20T12:52:40;32.10;60.60
52016;DHT22;38032;53.326;6.472;2023-08-20T12:55:07;32.00;60.90
52016;DHT22;38032;53.326;6.472;2023-08-20T12:57:34;32.00;61.30
52016;DHT22;38032;53.326;6.472;2023-08-20T13:00:02;31.90;60.90
52016;DHT22;38032;53.326;6.472;2023-08-20T13:02:32;31.80;60.00
52016;DHT22;38032;53.326;6.472;2023-08-20T13:04:59;31.80;60.10
52016;DHT22;38032;53.326;6.472;2023-08-20T13:07:25;31.80;59.80
52016;DHT22;38032;53.326;6.472;2023-08-20T13:09:51;31.70;60.00
52016;DHT22;38032;53.326;6.472;2023-08-20T13:12:18;31.60;59.30
52016;DHT22;38032;53.326;6.472;2023-08-20T13:14:47;31.50;59.80
52016;DHT22;38032;53.326;6.472;2023-08-20T13:17:13;31.40;60.60
52016;DHT22;38032;53.326;6.472;2023-08-20T13:19:39;31.40;59.90
52016;DHT22;38032;53.326;6.472;2023-08-20T13:22:05;31.40;60.70
52016;DHT22;38032;53.326;6.472;2023-08-20T13:24:31;31.20;60.70
52016;DHT22;38032;53.326;6.472;2023-08-20T13:26:57;31.10;60.70
52016;DHT22;38032;53.326;6.472;2023-08-20T13:29:23;31.00;61.30
52016;DHT22;38032;53.326;6.472;2023-08-20T13:31:49;31.10;61.40
52016;DHT22;38032;53.326;6.472;2023-08-20T13:34:15;31.10;61.10
52016;DHT22;38032;53.326;6.472;2023-08-20T13:36:41;31.10;61.20
52016;DHT22;38032;53.326;6.472;2023-08-20T13:39:07;31.10;61.60
52016;DHT22;38032;53.326;6.472;2023-08-20T13:41:33;31.10;61.20
52016;DHT22;38032;53.326;6.472;2023-08-20T13:43:59;31.00;61.20
52016;DHT22;38032;53.326;6.472;2023-08-20T13:46:25;30.90;61.40
52016;DHT22;38032;53.326;6.472;2023-08-20T13:48:51;30.90;62.00
52016;DHT22;38032;53.326;6.472;2023-08-20T13:51:17;30.80;62.20
52016;DHT22;38032;53.326;6.472;2023-08-20T13:53:43;30.80;62.40
52016;DHT22;38032;53.326;6.472;2023-08-20T13:56:09;30.80;62.20
52016;DHT22;38032;53.326;6.472;2023-08-20T13:58:34;30.80;61.50
52016;DHT22;38032;53.326;6.472;2023-08-20T14:01:00;30.90;61.90
52016;DHT22;38032;53.326;6.472;2023-08-20T14:03:27;30.90;62.00
52016;DHT22;38032;53.326;6.472;2023-08-20T14:05:53;30.90;62.90
52016;DHT22;38032;53.326;6.472;2023-08-20T14:08:19;30.80;62.40
52016;DHT22;38032;53.326;6.472;2023-08-20T14:10:45;30.80;63.10
52016;DHT22;38032;53.326;6.472;2023-08-20T14:13:11;30.80;62.90
52016;DHT22;38032;53.326;6.472;2023-08-20T14:15:37;30.80;63.20
52016;DHT22;38032;53.326;6.472;2023-08-20T14:18:03;30.70;62.60
52016;DHT22;38032;53.326;6.472;2023-08-20T14:20:29;30.70;61.70
52016;DHT22;38032;53.326;6.472;2023-08-20T14:22:55;30.70;62.90
52016;DHT22;38032;53.326;6.472;2023-08-20T14:25:21;30.60;64.00
52016;DHT22;38032;53.326;6.472;2023-08-20T14:27:47;30.60;64.90
52016;DHT22;38032;53.326;6.472;2023-08-20T14:30:13;30.50;65.20
52016;DHT22;38032;53.326;6.472;2023-08-20T14:32:38;30.30;65.20
52016;DHT22;38032;53.326;6.472;2023-08-20T14:35:05;30.30;65.70
52016;DHT22;38032;53.326;6.472;2023-08-20T14:37:31;29.90;66.00
52016;DHT22;38032;53.326;6.472;2023-08-20T14:39:57;29.90;66.60
52016;DHT22;38032;53.326;6.472;2023-08-20T14:42:22;29.70;67.50
52016;DHT22;38032;53.326;6.472;2023-08-20T14:44:48;29.50;67.40
52016;DHT22;38032;53.326;6.472;2023-08-20T14:47:14;29.30;68.10
52016;DHT22;38032;53.326;6.472;2023-08-20T14:49:40;29.30;68.80
52016;DHT22;38032;53.326;6.472;2023-08-20T14:52:06;29.30;69.90
52016;DHT22;38032;53.326;6.472;2023-08-20T14:54:33;29.30;70.30
52016;DHT22;38032;53.326;6.472;2023-08-20T14:56:58;29.30;71.30
52016;DHT22;38032;53.326;6.472;2023-08-20T14:59:24;29.30;71.50
52016;DHT22;38032;53.326;6.472;2023-08-20T15:01:51;29.30;71.50
52016;DHT22;38032;53.326;6.472;2023-08-20T15:04:18;29.10;71.10
52016;DHT22;38032;53.326;6.472;2023-08-20T15:06:44;28.80;71.00
52016;DHT22;38032;53.326;6.472;2023-08-20T15:09:10;28.60;72.00
52016;DHT22;38032;53.326;6.472;2023-08-20T15:11:41;28.50;72.90
52016;DHT22;38032;53.326;6.472;2023-08-20T15:14:08;28.50;74.30
52016;DHT22;38032;53.326;6.472;2023-08-20T15:16:34;28.40;74.70
52016;DHT22;38032;53.326;6.472;2023-08-20T15:18:59;28.40;75.40
52016;DHT22;38032;53.326;6.472;2023-08-20T15:21:26;28.30;75.80
52016;DHT22;38032;53.326;6.472;2023-08-20T15:23:52;28.10;75.70
52016;DHT22;38032;53.326;6.472;2023-08-20T15:26:18;28.00;76.20
52016;DHT22;38032;53.326;6.472;2023-08-20T15:28:44;28.00;84.30
52016;DHT22;38032;53.326;6.472;2023-08-20T15:31:10;28.10;80.30
52016;DHT22;38032;53.326;6.472;2023-08-20T15:33:36;28.00;79.20
52016;DHT22;38032;53.326;6.472;2023-08-20T15:36:02;27.80;78.60
52016;DHT22;38032;53.326;6.472;2023-08-20T15:38:28;27.80;79.60
52016;DHT22;38032;53.326;6.472;2023-08-20T15:40:54;27.90;79.80
52016;DHT22;38032;53.326;6.472;2023-08-20T15:43:20;27.80;79.00
52016;DHT22;38032;53.326;6.472;2023-08-20T15:48:13;27.70;78.40
52016;DHT22;38032;53.326;6.472;2023-08-20T15:50:39;27.70;78.60
52016;DHT22;38032;53.326;6.472;2023-08-20T15:53:05;27.60;76.80
52016;DHT22;38032;53.326;6.472;2023-08-20T15:55:31;27.60;78.40
52016;DHT22;38032;53.326;6.472;2023-08-20T15:57:57;27.60;80.80
52016;DHT22;38032;53.326;6.472;2023-08-20T16:00:22;27.60;81.70
52016;DHT22;38032;53.326;6.472;2023-08-20T16:02:49;27.50;80.00